Time;durP1;ratioP1;P1;durP2;ratioP2;P2;SDS_P1;SDS_P2;PMS_P1;PMS_P2;Temp;Humidity;BMP_temperature;BMP_pressure;BME280_temperature;BME280_humidity;BME280_pressure;Samples;Min_cycle;Max_cycle;Signal;HPM_P1;HPM_P2
2022/08/27 00:00:28;;;;;;;17.90;16.10;;;20.30;1.00;;;;;;5037276;28;20871;-78
2022/08/27 00:02:55;;;;;;;21.80;19.70;;;20.30;1.00;;;;;;5032505;28;20468;-80
2022/08/27 00:05:25;;;;;;;17.93;16.37;;;20.30;1.00;;;;;;5036821;28;20473;-80
2022/08/27 00:07:52;;;;;;;18.20;16.57;;;20.30;1.00;;;;;;5031597;28;20453;-80
2022/08/27 00:10:21;;;;;;;18.70;16.97;;;20.30;1.00;;;;;;5027770;28;20462;-78
2022/08/27 00:12:48;;;;;;;18.50;16.87;;;20.30;1.00;;;;;;5040305;28;20473;-80
2022/08/27 00:15:16;;;;;;;18.63;16.93;;;20.30;1.00;;;;;;5035068;28;20472;-79
2022/08/27 00:17:45;;;;;;;16.97;15.43;;;20.40;1.00;;;;;;5031763;28;20466;-79
2022/08/27 00:20:14;;;;;;;17.67;16.00;;;20.40;1.00;;;;;;5035733;28;20516;-79
2022/08/27 00:22:43;;;;;;;17.93;16.40;;;20.40;1.00;;;;;;5039000;28;21007;-79
2022/08/27 00:25:10;;;;;;;18.23;16.63;;;20.40;1.00;;;;;;5031201;28;20496;-79
2022/08/27 00:27:38;;;;;;;17.87;16.27;;;20.40;1.00;;;;;;5045662;28;20464;-79
2022/08/27 00:30:14;;;;;;;17.13;15.83;;;20.40;1.00;;;;;;5037234;28;20554;-80
2022/08/27 00:32:42;;;;;;;19.77;18.03;;;20.40;1.00;;;;;;5037799;28;20535;-79
2022/08/27 00:35:10;;;;;;;19.83;18.10;;;20.50;1.00;;;;;;5035637;28;20485;-79
2022/08/27 00:37:38;;;;;;;18.67;17.07;;;20.40;1.00;;;;;;5037972;28;20476;-80
2022/08/27 00:40:18;;;;;;;17.77;16.13;;;20.40;1.00;;;;;;5037996;28;20918;-79
2022/08/27 00:42:49;;;;;;;18.73;17.10;;;20.40;1.00;;;;;;5033410;28;20441;-81
2022/08/27 00:45:21;;;;;;;17.90;16.30;;;20.40;1.00;;;;;;5043246;28;20489;-79
2022/08/27 00:47:54;;;;;;;18.73;17.13;;;20.40;1.00;;;;;;5039728;28;20462;-81
2022/08/27 00:50:41;;;;;;;19.23;17.63;;;20.40;1.00;;;;;;5041126;28;20425;-80
2022/08/27 00:53:16;;;;;;;19.60;17.90;;;20.40;1.00;;;;;;5036545;28;20427;-80
2022/08/27 00:55:53;;;;;;;17.73;16.20;;;20.40;1.00;;;;;;5047509;28;20461;-80
2022/08/27 00:58:30;;;;;;;18.73;16.73;;;20.40;1.00;;;;;;5030497;28;20445;-79
2022/08/27 01:00:59;;;;;;;21.60;17.77;;;20.40;1.00;;;;;;5040536;28;20456;-79
2022/08/27 01:03:33;;;;;;;18.60;16.83;;;20.50;1.00;;;;;;5035031;28;20453;-80
2022/08/27 01:06:03;;;;;;;20.90;18.93;;;20.50;1.00;;;;;;5036848;28;20506;-80
2022/08/27 01:08:38;;;;;;;20.03;17.93;;;20.50;1.00;;;;;;5033989;28;20507;-80
2022/08/27 01:11:10;;;;;;;18.60;16.60;;;20.60;1.00;;;;;;5035238;28;20460;-80
2022/08/27 01:13:43;;;;;;;21.33;19.40;;;20.60;1.00;;;;;;5035407;28;20445;-80
2022/08/27 01:16:17;;;;;;;18.30;16.57;;;20.60;1.00;;;;;;5035792;28;20488;-80
2022/08/27 01:18:44;;;;;;;19.83;17.87;;;20.70;1.00;;;;;;5037216;28;20960;-80
2022/08/27 01:21:20;;;;;;;20.27;18.37;;;20.70;1.00;;;;;;5043658;28;20460;-78
2022/08/27 01:23:54;;;;;;;24.67;22.17;;;20.70;1.00;;;;;;5035188;28;20472;-79
2022/08/27 01:26:23;;;;;;;20.10;18.13;;;20.70;1.00;;;;;;5034485;28;20562;-81
2022/08/27 01:28:53;;;;;;;20.80;18.70;;;20.70;1.00;;;;;;5028006;28;20919;-79
2022/08/27 01:31:21;;;;;;;27.83;21.57;;;20.80;1.00;;;;;;5030181;28;21015;-79
2022/08/27 01:33:57;;;;;;;22.40;20.27;;;20.80;1.00;;;;;;5031715;28;20482;-79
2022/08/27 01:36:26;;;;;;;23.07;20.87;;;20.80;1.00;;;;;;5035105;28;20431;-80
2022/08/27 01:38:53;;;;;;;23.30;20.90;;;20.80;1.00;;;;;;5033385;28;21340;-79
2022/08/27 01:41:20;;;;;;;21.90;19.90;;;20.90;1.00;;;;;;5034127;28;20596;-79
2022/08/27 01:43:49;;;;;;;23.93;21.63;;;20.90;1.00;;;;;;5034016;28;20465;-79
2022/08/27 01:46:20;;;;;;;23.80;21.40;;;20.90;1.00;;;;;;5036696;28;20579;-79
2022/08/27 01:48:49;;;;;;;22.73;20.53;;;20.90;1.00;;;;;;5037902;28;20433;-78
2022/08/27 01:51:16;;;;;;;21.90;19.90;;;21.00;1.00;;;;;;5034405;28;20454;-80
2022/08/27 01:53:43;;;;;;;25.80;23.37;;;21.00;1.00;;;;;;5021832;28;20978;-79
2022/08/27 01:56:12;;;;;;;26.37;23.57;;;21.10;1.00;;;;;;5035429;28;21242;-80
2022/08/27 01:58:40;;;;;;;24.20;21.77;;;21.00;1.00;;;;;;5036000;28;21349;-80
2022/08/27 02:01:12;;;;;;;25.30;22.63;;;21.00;1.00;;;;;;5031843;28;20477;-80
2022/08/27 02:03:40;;;;;;;24.03;21.70;;;21.10;1.00;;;;;;5025885;28;20453;-80
2022/08/27 02:06:10;;;;;;;25.03;22.53;;;21.10;1.00;;;;;;5033365;28;20504;-79
2022/08/27 02:08:38;;;;;;;24.23;21.63;;;21.00;1.00;;;;;;5028762;28;21056;-79
2022/08/27 02:11:07;;;;;;;23.70;21.47;;;21.10;1.00;;;;;;5027175;28;20638;-79
2022/08/27 02:13:34;;;;;;;21.77;19.53;;;21.10;1.00;;;;;;5022645;28;20564;-79
2022/08/27 02:16:01;;;;;;;21.50;19.40;;;21.10;1.00;;;;;;5023597;28;20505;-80
2022/08/27 02:18:29;;;;;;;21.00;19.10;;;21.10;1.00;;;;;;5028220;28;20445;-79
2022/08/27 02:20:56;;;;;;;22.37;20.37;;;21.00;1.00;;;;;;5027636;28;20592;-80
2022/08/27 02:23:22;;;;;;;24.70;22.20;;;21.00;1.00;;;;;;5026174;28;20540;-79
2022/08/27 02:25:49;;;;;;;23.67;21.10;;;21.00;1.00;;;;;;5027324;28;21076;-79
2022/08/27 02:28:16;;;;;;;24.83;22.23;;;21.00;1.00;;;;;;5028801;28;20453;-79
2022/08/27 02:30:49;;;;;;;27.50;22.07;;;21.00;1.00;;;;;;5028885;28;20489;-79
2022/08/27 02:33:19;;;;;;;22.57;20.23;;;21.00;1.00;;;;;;5029733;28;20402;-80
2022/08/27 02:35:48;;;;;;;27.17;21.30;;;21.10;1.00;;;;;;5030130;28;20430;-80
2022/08/27 02:38:15;;;;;;;23.27;20.87;;;21.00;1.00;;;;;;5034115;28;20588;-76
2022/08/27 02:40:42;;;;;;;22.40;20.30;;;21.00;1.00;;;;;;5030251;28;20461;-78
2022/08/27 02:43:11;;;;;;;24.60;22.10;;;21.00;1.00;;;;;;5029795;28;20600;-79
2022/08/27 02:45:38;;;;;;;23.23;20.90;;;21.00;1.00;;;;;;5030999;28;20468;-78
2022/08/27 02:48:06;;;;;;;24.03;21.77;;;21.00;1.00;;;;;;5032550;28;20535;-79
2022/08/27 02:50:33;;;;;;;24.17;21.67;;;21.10;1.00;;;;;;5027239;28;20914;-79
2022/08/27 02:53:03;;;;;;;23.40;21.00;;;21.10;1.00;;;;;;5030337;28;20556;-79
2022/08/27 02:55:30;;;;;;;22.83;20.50;;;21.10;1.00;;;;;;5032338;28;20481;-79
2022/08/27 02:57:57;;;;;;;24.87;22.37;;;21.10;1.00;;;;;;5033946;28;20547;-79
2022/08/27 03:00:26;;;;;;;24.53;22.00;;;21.10;1.00;;;;;;5035447;28;21438;-79
2022/08/27 03:02:53;;;;;;;27.07;24.37;;;21.10;1.00;;;;;;5036273;28;20449;-79
2022/08/27 03:05:21;;;;;;;25.87;23.10;;;21.20;1.00;;;;;;5027138;28;22460;-81
2022/08/27 03:07:50;;;;;;;25.07;22.40;;;21.20;1.00;;;;;;5026111;28;20488;-79
2022/08/27 03:10:20;;;;;;;25.80;23.03;;;21.20;1.00;;;;;;5029365;28;20471;-81
2022/08/27 03:12:48;;;;;;;28.97;23.90;;;21.20;1.00;;;;;;5026541;28;20608;-81
2022/08/27 03:15:17;;;;;;;30.03;23.97;;;21.20;1.00;;;;;;5028083;28;20489;-79
2022/08/27 03:20:32;;;;;;;29.20;23.33;;;21.20;1.00;;;;;;5026805;28;20453;-79
2022/08/27 03:22:59;;;;;;;26.00;23.10;;;21.20;1.00;;;;;;5032110;28;20461;-80
2022/08/27 03:25:30;;;;;;;27.03;24.33;;;21.20;1.00;;;;;;5028780;28;20533;-79
2022/08/27 03:27:57;;;;;;;29.77;24.10;;;21.20;1.00;;;;;;5031929;28;20461;-79
2022/08/27 03:30:24;;;;;;;27.17;24.37;;;21.30;1.00;;;;;;5028605;28;20470;-81
2022/08/27 03:32:52;;;;;;;26.13;23.27;;;21.30;1.00;;;;;;5029157;28;20469;-79
2022/08/27 03:35:20;;;;;;;27.27;24.33;;;21.30;1.00;;;;;;5029855;28;20486;-80
2022/08/27 03:37:48;;;;;;;28.83;25.90;;;21.30;1.00;;;;;;5027181;28;20453;-79
2022/08/27 03:40:15;;;;;;;27.00;24.30;;;21.40;1.00;;;;;;5028300;28;20484;-78
2022/08/27 03:42:44;;;;;;;28.47;24.57;;;21.40;1.00;;;;;;5027078;28;20548;-79
2022/08/27 03:45:12;;;;;;;32.23;26.10;;;21.40;1.00;;;;;;5031778;28;20468;-79
2022/08/27 03:47:39;;;;;;;30.87;25.33;;;21.40;1.00;;;;;;5027876;28;20546;-79
2022/08/27 03:50:10;;;;;;;29.60;26.40;;;21.40;1.00;;;;;;5027750;28;20460;-79
2022/08/27 03:52:37;;;;;;;31.00;25.47;;;21.40;1.00;;;;;;5031016;28;20452;-79
2022/08/27 03:55:06;;;;;;;27.80;24.70;;;21.30;1.00;;;;;;5033380;28;20480;-79
2022/08/27 03:57:33;;;;;;;30.77;25.20;;;21.30;1.00;;;;;;5027342;28;21041;-79
2022/08/27 04:00:02;;;;;;;30.17;24.87;;;21.20;1.00;;;;;;5026533;28;20927;-79
2022/08/27 04:02:30;;;;;;;30.70;26.07;;;21.20;1.00;;;;;;5023577;28;20475;-79
2022/08/27 04:04:57;;;;;;;30.43;25.50;;;21.20;1.00;;;;;;5029808;28;21000;-80
2022/08/27 04:07:24;;;;;;;32.27;26.60;;;21.20;1.00;;;;;;5024626;28;20508;-80
2022/08/27 04:09:51;;;;;;;30.13;27.00;;;21.20;1.00;;;;;;5026188;28;20437;-80
2022/08/27 04:12:18;;;;;;;31.53;26.93;;;21.20;1.00;;;;;;5025094;28;20469;-80
2022/08/27 04:14:44;;;;;;;31.07;27.57;;;21.10;1.00;;;;;;5025602;28;20479;-80
2022/08/27 04:17:13;;;;;;;34.53;26.83;;;21.00;1.00;;;;;;5021259;28;20474;-80
2022/08/27 04:19:40;;;;;;;29.60;25.90;;;21.00;1.00;;;;;;5026141;28;20461;-80
2022/08/27 04:22:07;;;;;;;38.87;33.63;;;20.90;1.00;;;;;;5027495;28;20469;-80
2022/08/27 04:24:36;;;;;;;39.03;31.40;;;21.00;1.00;;;;;;5022326;28;21437;-79
2022/08/27 04:27:04;;;;;;;30.97;26.50;;;21.00;1.00;;;;;;5026315;28;20457;-80
2022/08/27 04:29:31;;;;;;;32.53;26.90;;;21.00;1.00;;;;;;5023655;28;20469;-80
2022/08/27 04:31:58;;;;;;;34.37;27.27;;;20.90;1.00;;;;;;5022829;28;20501;-80
2022/08/27 04:34:26;;;;;;;30.73;25.53;;;20.90;1.00;;;;;;5027454;28;20465;-80
2022/08/27 04:36:55;;;;;;;30.63;25.00;;;20.90;1.00;;;;;;5027328;28;20457;-80
2022/08/27 04:39:22;;;;;;;36.30;26.03;;;20.80;1.00;;;;;;5028605;28;20509;-80
2022/08/27 04:41:49;;;;;;;32.80;25.90;;;20.80;1.00;;;;;;5025112;28;20923;-79
2022/08/27 04:44:16;;;;;;;34.57;28.20;;;20.80;1.00;;;;;;5029282;28;20498;-79
2022/08/27 04:46:43;;;;;;;32.50;25.80;;;20.70;1.00;;;;;;5026488;28;20463;-78
2022/08/27 04:49:12;;;;;;;32.80;26.00;;;20.70;1.00;;;;;;5031447;28;20486;-78
2022/08/27 04:51:41;;;;;;;30.20;24.50;;;20.70;1.00;;;;;;5028815;28;20453;-78
2022/08/27 04:54:09;;;;;;;30.33;26.97;;;20.70;1.00;;;;;;5029899;28;21010;-79
2022/08/27 04:56:37;;;;;;;29.60;25.23;;;20.70;1.00;;;;;;5027811;28;20463;-78
2022/08/27 04:59:06;;;;;;;31.40;25.53;;;20.80;1.00;;;;;;5029656;28;20452;-79
2022/08/27 05:01:34;;;;;;;35.43;27.60;;;20.80;1.00;;;;;;5030233;28;20464;-79
2022/08/27 05:04:01;;;;;;;27.73;24.33;;;20.80;1.00;;;;;;5034457;28;20529;-79
2022/08/27 05:06:29;;;;;;;29.10;25.30;;;20.80;1.00;;;;;;5024642;28;20445;-82
2022/08/27 05:08:57;;;;;;;33.03;27.03;;;20.90;1.00;;;;;;5026437;28;20469;-79
2022/08/27 05:11:27;;;;;;;32.27;27.10;;;20.90;1.00;;;;;;5022472;28;20494;-79
2022/08/27 05:13:54;;;;;;;32.53;26.20;;;20.90;1.00;;;;;;5024387;28;20464;-78
2022/08/27 05:16:22;;;;;;;30.67;25.47;;;20.90;1.00;;;;;;5033405;28;20481;-79
2022/08/27 05:18:51;;;;;;;30.10;24.17;;;21.00;1.00;;;;;;5031364;28;20475;-78
2022/08/27 05:21:19;;;;;;;29.37;26.07;;;21.00;1.00;;;;;;5028379;28;20584;-80
2022/08/27 05:23:52;;;;;;;26.37;23.27;;;21.10;1.00;;;;;;5032073;28;20465;-79
2022/08/27 05:26:21;;;;;;;27.87;23.57;;;21.10;1.00;;;;;;5030127;28;20457;-82
2022/08/27 05:28:50;;;;;;;27.83;23.87;;;21.10;1.00;;;;;;5023479;28;20881;-79
2022/08/27 05:31:18;;;;;;;26.87;22.97;;;21.10;1.00;;;;;;5029734;28;20464;-79
2022/08/27 05:33:47;;;;;;;26.20;23.43;;;21.10;1.00;;;;;;5021195;28;20904;-78
2022/08/27 05:36:17;;;;;;;26.03;22.50;;;21.00;1.00;;;;;;5026608;28;20480;-79
2022/08/27 05:38:43;;;;;;;25.83;22.27;;;21.10;1.00;;;;;;5028599;28;21269;-78
2022/08/27 05:41:14;;;;;;;24.43;21.80;;;21.00;1.00;;;;;;5023120;28;20469;-79
2022/08/27 05:43:44;;;;;;;25.73;22.47;;;21.00;1.00;;;;;;5026158;28;20465;-85
2022/08/27 05:46:15;;;;;;;24.37;21.60;;;21.00;1.00;;;;;;5026365;28;20457;-79
2022/08/27 05:48:42;;;;;;;28.80;24.07;;;21.00;1.00;;;;;;5028184;28;20472;-78
2022/08/27 05:51:11;;;;;;;25.20;22.57;;;21.00;1.00;;;;;;5031662;28;20461;-80
2022/08/27 05:53:39;;;;;;;27.47;22.73;;;21.10;1.00;;;;;;5028236;28;20950;-78
2022/08/27 05:56:12;;;;;;;23.23;20.83;;;21.20;1.00;;;;;;5027448;28;20551;-79
2022/08/27 06:01:24;;;;;;;23.93;21.37;;;21.30;1.00;;;;;;5032636;28;20466;-79
2022/08/27 06:03:53;;;;;;;25.37;21.23;;;21.30;1.00;;;;;;5033324;28;21012;-80
2022/08/27 06:06:21;;;;;;;24.17;21.60;;;21.40;1.00;;;;;;5027293;28;20889;-80
2022/08/27 06:08:50;;;;;;;24.60;21.40;;;21.40;1.00;;;;;;5027649;28;20973;-77
2022/08/27 06:11:18;;;;;;;22.10;19.77;;;21.50;1.00;;;;;;5029023;28;20497;-78
2022/08/27 06:13:45;;;;;;;22.47;19.80;;;21.50;1.00;;;;;;5035620;28;20460;-78
2022/08/27 06:16:15;;;;;;;23.50;21.20;;;21.50;1.00;;;;;;5026927;28;20866;-79
2022/08/27 06:18:45;;;;;;;21.87;19.57;;;21.60;1.00;;;;;;5032577;28;20449;-78
2022/08/27 06:21:15;;;;;;;23.07;19.13;;;21.60;1.00;;;;;;5035641;28;20516;-78
2022/08/27 06:23:42;;;;;;;22.47;20.17;;;21.70;1.00;;;;;;5034582;28;20548;-78
2022/08/27 06:26:11;;;;;;;20.00;18.00;;;21.70;1.00;;;;;;5034715;28;20952;-78
2022/08/27 06:28:40;;;;;;;21.37;17.30;;;21.70;1.00;;;;;;5033558;28;20473;-79
2022/08/27 06:31:08;;;;;;;21.47;19.33;;;21.70;1.00;;;;;;5034856;28;20472;-79
2022/08/27 06:33:37;;;;;;;21.43;19.30;;;21.70;1.00;;;;;;5030624;28;20444;-78
2022/08/27 06:36:08;;;;;;;22.17;19.93;;;21.70;1.00;;;;;;5030648;28;20461;-78
2022/08/27 06:38:36;;;;;;;22.40;18.90;;;21.80;1.00;;;;;;5032856;28;20464;-78
2022/08/27 06:41:04;;;;;;;20.80;18.67;;;21.80;1.00;;;;;;5034904;28;20924;-77
2022/08/27 06:43:32;;;;;;;22.63;20.37;;;21.80;1.00;;;;;;5033448;28;20504;-78
2022/08/27 06:46:02;;;;;;;21.13;19.13;;;21.80;1.00;;;;;;5030601;28;20465;-78
2022/08/27 06:48:32;;;;;;;21.87;19.77;;;21.80;1.00;;;;;;5033984;28;20461;-78
2022/08/27 06:50:59;;;;;;;20.30;18.30;;;21.90;1.00;;;;;;5033231;28;20484;-78
2022/08/27 06:53:27;;;;;;;20.57;18.43;;;22.00;1.00;;;;;;5032499;28;20473;-78
2022/08/27 06:55:56;;;;;;;20.67;18.67;;;22.00;1.00;;;;;;5033996;28;20503;-79
2022/08/27 06:58:23;;;;;;;19.77;17.77;;;22.00;1.00;;;;;;5033437;28;21013;-78
2022/08/27 07:00:51;;;;;;;18.93;17.23;;;22.00;1.00;;;;;;5040573;28;20477;-78
2022/08/27 07:03:18;;;;;;;20.13;18.33;;;22.00;1.00;;;;;;5030594;28;20468;-81
2022/08/27 07:05:45;;;;;;;21.60;19.70;;;22.10;1.00;;;;;;5041536;28;20449;-83
2022/08/27 07:08:12;;;;;;;18.20;16.50;;;22.10;1.00;;;;;;5035206;28;20452;-82
2022/08/27 07:10:40;;;;;;;19.80;17.90;;;22.10;1.00;;;;;;5028431;28;20535;-83
2022/08/27 07:13:07;;;;;;;17.03;15.53;;;22.20;1.00;;;;;;5033448;28;20477;-82
2022/08/27 07:15:37;;;;;;;17.63;15.83;;;22.10;1.00;;;;;;5026848;28;20433;-79
2022/08/27 07:18:04;;;;;;;17.33;15.70;;;22.20;1.00;;;;;;5029477;28;20443;-80
2022/08/27 07:20:31;;;;;;;17.20;15.23;;;22.20;1.00;;;;;;5026594;28;20502;-81
2022/08/27 07:22:58;;;;;;;20.47;16.33;;;22.20;1.00;;;;;;5028704;28;20476;-81
2022/08/27 07:25:26;;;;;;;17.83;16.13;;;22.20;1.00;;;;;;5027083;28;22079;-81
2022/08/27 07:27:55;;;;;;;17.03;15.43;;;22.20;1.00;;;;;;5031037;28;20470;-81
2022/08/27 07:30:22;;;;;;;15.57;14.13;;;22.20;1.00;;;;;;5033507;28;20469;-81
2022/08/27 07:32:51;;;;;;;14.87;13.50;;;22.20;1.00;;;;;;5032876;28;20534;-82
2022/08/27 07:35:18;;;;;;;15.60;14.20;;;22.30;1.00;;;;;;5030131;28;20540;-80
2022/08/27 07:37:46;;;;;;;14.77;13.40;;;22.30;1.00;;;;;;5031773;28;20493;-80
2022/08/27 07:40:16;;;;;;;14.10;12.70;;;22.40;1.00;;;;;;5031790;28;20945;-80
2022/08/27 07:45:30;;;;;;;14.13;12.83;;;22.50;1.00;;;;;;5033750;28;20464;-81
2022/08/27 07:47:57;;;;;;;13.90;12.63;;;22.50;1.00;;;;;;5032616;28;20845;-81
2022/08/27 07:50:24;;;;;;;14.80;13.40;;;22.50;1.00;;;;;;5033567;28;20541;-81
2022/08/27 07:52:51;;;;;;;14.47;13.13;;;22.50;1.00;;;;;;5034049;28;20976;-81
2022/08/27 07:55:18;;;;;;;17.40;15.70;;;22.60;1.00;;;;;;5029664;28;20448;-79
2022/08/27 07:57:46;;;;;;;15.10;13.70;;;22.60;1.00;;;;;;5033104;28;21089;-80
2022/08/27 08:00:14;;;;;;;14.87;13.37;;;22.70;1.00;;;;;;5034382;28;20457;-80
2022/08/27 08:02:45;;;;;;;16.17;14.67;;;22.70;1.00;;;;;;5030970;28;20976;-79
2022/08/27 08:05:14;;;;;;;14.00;12.50;;;22.70;1.00;;;;;;5033989;28;21409;-81
2022/08/27 08:07:40;;;;;;;15.30;13.80;;;22.60;1.00;;;;;;5034096;28;20485;-80
2022/08/27 08:10:10;;;;;;;16.30;14.90;;;22.70;1.00;;;;;;5036195;28;20450;-81
2022/08/27 08:12:37;;;;;;;14.80;13.50;;;22.70;1.00;;;;;;5034518;28;20440;-81
2022/08/27 08:15:05;;;;;;;14.10;12.80;;;22.80;1.00;;;;;;5030025;28;20445;-81
2022/08/27 08:17:33;;;;;;;13.80;12.60;;;22.80;1.00;;;;;;5035213;28;20461;-81
2022/08/27 08:20:01;;;;;;;13.67;12.47;;;22.80;1.00;;;;;;5037700;28;20474;-80
2022/08/27 08:22:28;;;;;;;14.20;12.90;;;22.80;1.00;;;;;;5039265;28;20441;-81
2022/08/27 08:24:55;;;;;;;14.10;12.10;;;22.70;1.00;;;;;;5038313;28;20461;-82
2022/08/27 08:27:23;;;;;;;11.60;10.60;;;22.60;1.00;;;;;;5037833;28;20480;-81
2022/08/27 08:29:52;;;;;;;14.00;12.80;;;22.40;1.00;;;;;;5033417;28;20453;-81
2022/08/27 08:32:19;;;;;;;12.83;11.57;;;22.30;1.00;;;;;;5035989;28;20464;-80
2022/08/27 08:34:46;;;;;;;11.10;10.10;;;22.30;1.00;;;;;;5037451;28;20453;-82
2022/08/27 08:37:14;;;;;;;13.00;11.80;;;22.20;1.00;;;;;;5035874;28;20497;-81
2022/08/27 08:39:42;;;;;;;13.67;12.47;;;22.20;1.00;;;;;;5032602;28;20440;-80
2022/08/27 08:42:21;;;;;;;12.50;11.50;;;22.40;1.00;;;;;;5033176;28;20556;-81
2022/08/27 08:44:52;;;;;;;12.10;11.10;;;22.50;1.00;;;;;;5033041;28;20453;-81
2022/08/27 08:47:23;;;;;;;10.57;9.67;;;22.60;1.00;;;;;;5014863;28;20452;-81
2022/08/27 08:49:55;;;;;;;11.30;10.00;;;22.60;1.00;;;;;;5031810;28;20461;-79
2022/08/27 08:52:38;;;;;;;9.90;9.00;;;22.50;1.00;;;;;;5028500;28;20855;-79
2022/08/27 08:55:18;;;;;;;10.57;9.67;;;22.60;1.00;;;;;;5031418;28;21052;-79
2022/08/27 08:57:51;;;;;;;10.20;9.30;;;22.60;1.00;;;;;;5036382;28;20460;-80
2022/08/27 09:00:18;;;;;;;10.90;9.77;;;22.60;1.00;;;;;;5035257;28;20467;-80
2022/08/27 09:02:53;;;;;;;10.00;9.10;;;22.80;1.00;;;;;;5033314;28;20492;-80
2022/08/27 09:05:22;;;;;;;11.40;10.30;;;22.90;1.00;;;;;;5031073;28;20881;-78
2022/08/27 09:08:01;;;;;;;11.40;10.40;;;23.00;1.00;;;;;;5031686;28;20468;-79
2022/08/27 09:10:35;;;;;;;14.17;12.87;;;23.10;1.00;;;;;;5027372;28;20917;-79
2022/08/27 09:13:05;;;;;;;12.17;11.00;;;23.20;1.00;;;;;;5029177;28;20469;-80
2022/08/27 09:15:35;;;;;;;11.80;10.73;;;23.20;1.00;;;;;;5031723;28;20441;-79
2022/08/27 09:18:08;;;;;;;12.77;11.63;;;23.20;1.00;;;;;;5032035;28;20466;-80
2022/08/27 09:20:36;;;;;;;11.20;10.30;;;23.10;1.00;;;;;;5024997;28;20467;-80
2022/08/27 09:23:11;;;;;;;10.73;9.90;;;23.10;1.00;;;;;;5033272;28;20615;-81
2022/08/27 09:25:39;;;;;;;11.83;10.83;;;23.10;1.00;;;;;;5020797;28;20464;-81
2022/08/27 09:29:14;;;;;;;14.17;12.63;;;23.00;1.00;;;;;;5033063;28;20472;-81
2022/08/27 09:31:00;;;;;;;13.37;12.20;;;23.00;1.00;;;;;;5033692;28;20960;-82
2022/08/27 09:33:27;;;;;;;12.73;11.40;;;23.00;1.00;;;;;;5033587;28;20475;-82
2022/08/27 09:35:55;;;;;;;12.27;11.13;;;23.10;1.00;;;;;;5032846;28;20449;-82
2022/08/27 09:38:29;;;;;;;13.43;12.40;;;23.30;1.00;;;;;;5037324;28;21240;-82
2022/08/27 09:40:59;;;;;;;14.83;13.40;;;23.60;1.00;;;;;;5037162;28;20858;-82
2022/08/27 09:43:30;;;;;;;13.60;12.30;;;23.70;1.00;;;;;;5035684;28;20449;-84
2022/08/27 09:45:59;;;;;;;13.50;12.30;;;23.70;1.00;;;;;;5035405;28;20842;-81
2022/08/27 09:48:30;;;;;;;11.07;10.07;;;23.80;1.00;;;;;;5033229;28;20471;-83
2022/08/27 09:51:00;;;;;;;12.97;11.17;;;24.00;1.00;;;;;;5037188;28;20461;-82
2022/08/27 09:53:32;;;;;;;11.83;10.73;;;24.20;1.00;;;;;;5034484;28;21340;-83
2022/08/27 09:56:02;;;;;;;11.43;10.33;;;24.20;1.00;;;;;;5035943;28;20917;-83
2022/08/27 09:58:32;;;;;;;9.83;8.77;;;24.30;1.00;;;;;;5037057;28;20977;-83
2022/08/27 10:01:02;;;;;;;9.47;8.67;;;24.30;1.00;;;;;;5032557;28;20492;-84
2022/08/27 10:03:33;;;;;;;10.10;9.20;;;24.40;1.00;;;;;;5032474;28;20552;-82
2022/08/27 10:06:00;;;;;;;9.93;8.90;;;24.60;1.00;;;;;;5035231;28;20843;-83
2022/08/27 10:08:35;;;;;;;9.57;8.67;;;24.80;1.00;;;;;;5032318;28;20465;-84
2022/08/27 10:11:06;;;;;;;10.67;9.50;;;25.00;1.00;;;;;;5033054;28;20552;-85
2022/08/27 10:13:40;;;;;;;13.17;9.27;;;24.90;1.00;;;;;;5037328;28;20477;-85
2022/08/27 10:16:25;;;;;;;12.87;8.87;;;24.90;1.00;;;;;;5035626;28;20506;-85
2022/08/27 10:18:58;;;;;;;9.60;8.70;;;24.90;1.00;;;;;;5033980;28;20544;-86
2022/08/27 10:21:31;;;;;;;10.50;8.63;;;24.90;1.00;;;;;;5034967;28;20468;-85
2022/08/27 10:24:12;;;;;;;12.30;10.27;;;24.80;1.00;;;;;;5037384;28;20461;-84
2022/08/27 10:26:46;;;;;;;8.90;8.10;;;24.70;1.00;;;;;;5033106;28;20458;-85
2022/08/27 10:29:24;;;;;;;9.87;8.97;;;24.70;1.00;;;;;;5035666;28;20491;-85
2022/08/27 10:32:02;;;;;;;11.20;8.77;;;24.60;1.00;;;;;;5036968;28;20533;-82
2022/08/27 10:34:37;;;;;;;9.30;8.30;;;24.60;1.00;;;;;;5036509;28;21104;-83
2022/08/27 10:37:15;;;;;;;9.37;8.43;;;24.50;1.00;;;;;;5032477;28;20536;-84
2022/08/27 10:39:56;;;;;;;9.60;8.80;;;24.50;1.00;;;;;;5034593;28;20487;-83
2022/08/27 10:42:28;;;;;;;11.50;10.03;;;24.50;1.00;;;;;;5030538;28;20480;-83
2022/08/27 10:45:11;;;;;;;10.40;9.40;;;24.50;1.00;;;;;;5035508;28;20469;-84
2022/08/27 10:47:54;;;;;;;11.30;10.03;;;24.60;1.00;;;;;;5033391;28;20461;-82
2022/08/27 10:50:28;;;;;;;9.90;9.10;;;24.70;1.00;;;;;;5035025;28;20422;-82
2022/08/27 10:53:01;;;;;;;15.77;10.00;;;24.70;1.00;;;;;;5033582;28;20476;-82
2022/08/27 10:55:31;;;;;;;10.47;8.93;;;24.60;1.00;;;;;;5034666;28;20445;-81
2022/08/27 10:58:31;;;;;;;11.97;9.90;;;24.60;1.00;;;;;;5034738;28;20479;-80
2022/08/27 11:01:05;;;;;;;10.57;9.47;;;24.70;1.00;;;;;;5026555;28;20476;-80
2022/08/27 11:03:39;;;;;;;10.53;9.07;;;24.80;1.00;;;;;;5033897;28;20459;-82
2022/08/27 11:06:14;;;;;;;10.57;9.50;;;24.80;1.00;;;;;;5033456;28;20993;-82
2022/08/27 11:08:48;;;;;;;21.80;19.90;;;24.90;1.00;;;;;;5028491;28;20460;-83
2022/08/27 11:14:31;;;;;;;9.70;8.67;;;24.90;1.00;;;;;;5026736;28;20449;-82
2022/08/27 11:17:04;;;;;;;11.50;9.27;;;25.00;1.00;;;;;;5030726;28;20488;-83
2022/08/27 11:19:45;;;;;;;9.57;8.80;;;25.10;1.00;;;;;;5032381;28;20461;-83
2022/08/27 11:22:18;;;;;;;9.60;8.63;;;25.10;1.00;;;;;;5030677;28;20988;-82
2022/08/27 11:24:54;;;;;;;9.07;8.30;;;25.20;1.00;;;;;;5033185;28;20461;-81
2022/08/27 11:27:32;;;;;;;10.67;9.33;;;25.20;1.00;;;;;;5030060;28;20476;-82
2022/08/27 11:30:05;;;;;;;9.60;8.70;;;25.30;1.00;;;;;;5030855;28;20984;-81
2022/08/27 11:32:41;;;;;;;10.40;9.37;;;25.50;1.00;;;;;;5026702;28;20465;-82
2022/08/27 11:35:17;;;;;;;8.77;8.00;;;25.70;1.00;;;;;;5034230;28;20513;-83
2022/08/27 11:38:23;;;;;;;9.47;8.70;;;26.20;1.00;;;;;;5025383;28;20457;-82
2022/08/27 11:41:13;;;;;;;8.73;8.03;;;26.60;1.00;;;;;;5018560;28;20459;-82
2022/08/27 11:43:53;;;;;;;9.07;8.27;;;27.10;1.00;;;;;;5030038;28;20446;-82
2022/08/27 11:46:24;;;;;;;9.97;8.97;;;27.40;1.00;;;;;;5023397;28;20453;-81
2022/08/27 11:49:01;;;;;;;7.53;6.93;;;27.90;1.00;;;;;;5026992;28;20469;-81
2022/08/27 11:51:33;;;;;;;7.27;6.77;;;28.60;1.00;;;;;;5029473;28;20947;-82
2022/08/27 11:54:02;;;;;;;6.87;6.37;;;29.40;1.00;;;;;;5032135;28;20469;-82
2022/08/27 11:56:42;;;;;;;8.40;6.10;;;30.00;1.00;;;;;;5028867;28;20468;-81
2022/08/27 11:59:19;;;;;;;6.60;6.10;;;30.10;1.00;;;;;;5031385;28;20475;-80
2022/08/27 12:01:46;;;;;;;7.80;6.80;;;29.90;1.00;;;;;;5025180;28;20897;-82
2022/08/27 12:04:37;;;;;;;8.70;7.90;;;29.50;1.00;;;;;;5031008;28;20907;-80
2022/08/27 12:07:08;;;;;;;8.00;7.40;;;29.40;1.00;;;;;;5028292;28;20472;-80
2022/08/27 12:09:55;;;;;;;7.33;6.73;;;29.20;1.00;;;;;;5024925;28;20472;-81
2022/08/27 12:12:34;;;;;;;7.03;6.40;;;29.20;1.00;;;;;;5031516;28;20524;-82
2022/08/27 12:15:09;;;;;;;7.37;6.87;;;29.20;1.00;;;;;;5033649;28;20628;-82
2022/08/27 12:17:42;;;;;;;6.70;6.20;;;29.70;1.00;;;;;;5046472;28;20453;-80
2022/08/27 12:20:24;;;;;;;6.57;6.07;;;29.80;1.00;;;;;;5039648;28;20889;-82
2022/08/27 12:31:40;;;;;;;7.20;6.70;;;28.70;1.00;;;;;;4984985;23;20431;-87
2022/08/27 12:34:15;;;;;;;7.70;7.10;;;28.30;1.00;;;;;;5004566;28;20422;-87
2022/08/27 12:36:45;;;;;;;7.60;7.00;;;27.90;1.00;;;;;;5009853;28;20436;-88
2022/08/27 12:39:17;;;;;;;7.97;7.37;;;27.70;1.00;;;;;;4992136;28;20492;-87
2022/08/27 12:41:47;;;;;;;8.30;7.70;;;27.50;1.00;;;;;;4991488;28;20494;-87
2022/08/27 12:44:23;;;;;;;7.83;7.13;;;27.40;1.00;;;;;;4994901;28;20451;-86
2022/08/27 12:46:54;;;;;;;8.23;7.63;;;27.60;1.00;;;;;;4993958;28;20470;-79
2022/08/27 12:49:26;;;;;;;8.60;7.70;;;27.80;1.00;;;;;;4990024;28;20527;-79
2022/08/27 12:51:54;;;;;;;8.27;7.47;;;27.90;1.00;;;;;;4997242;28;20482;-78
2022/08/27 12:54:35;;;;;;;9.27;8.33;;;28.40;1.00;;;;;;4992400;28;20474;-78
2022/08/27 12:57:14;;;;;;;8.60;6.67;;;28.90;1.00;;;;;;4994533;28;20550;-80
2022/08/27 12:59:57;;;;;;;8.90;8.20;;;29.20;1.00;;;;;;4986473;28;20534;-80
2022/08/27 13:02:56;;;;;;;8.90;8.07;;;29.30;1.00;;;;;;4985579;28;20610;-78
2022/08/27 13:05:24;;;;;;;9.30;7.80;;;29.00;1.00;;;;;;4968669;28;20454;-80
2022/08/27 13:07:55;;;;;;;9.80;9.00;;;28.70;1.00;;;;;;4987948;28;20631;-80
2022/08/27 13:10:27;;;;;;;8.83;8.00;;;28.50;1.00;;;;;;4980051;28;20499;-79
2022/08/27 13:13:04;;;;;;;10.33;9.50;;;28.20;1.00;;;;;;4989085;28;20525;-80
2022/08/27 13:15:32;;;;;;;9.00;8.30;;;27.90;1.00;;;;;;4986580;28;20469;-79
2022/08/27 13:18:02;;;;;;;9.20;8.50;;;27.70;1.00;;;;;;4985553;28;20463;-79